ウィーン の空港の天気 - METARとTAF

ウィーン国際空港 ( LOWW / VIE ) - オーストリア ウィーン
飛行場実況気象(Metar)
観測時間11/30 11:20 CET (11/30 10:20 UTC)
風向・風速北北西 2m/s
視程10km以上
天気現象
少しの雲 雲底高度 550m
気温4℃
湿度75%
気圧1027hPa
METARLOWW 301020Z 34004KT 280V010 9999 FEW018 04/M00 Q1027 NOSIG
過去の天気等 Google飛行場航空写真 Wunderground天気予報

過去48時間のMETAR

飛行場予報(TAF)
発表時間: 11/30 09:15 CET (11/30 08:15 UTC)
予報対象時間: 30日10時 CET ~ 1日16時 CET
風向・風速北北西 4m/s
視程10km以上
全天の8割程度の雲 雲底高度 760m
30日14時 CET ~ 30日17時 CET に徐々に
風向・風速南東 3m/s
1日3時 CET ~ 1日7時 CET に一時的に
全天の8割程度の雲 雲底高度 270m
1日9時 CET ~ 1日16時 CET に一時的に
風向・風速南東 8m/s 瞬間風速 13m/s
TAF LOWW 300815Z 3009/0115 34007KT 9999 BKN025 TX05/3012Z TNM02/0106Z
BECMG 3013/3016 14005KT
TEMPO 0102/0106 BKN009
TEMPO 0108/0115 14015G25KT